Time;durP1;ratioP1;P1;durP2;ratioP2;P2;SDS_P1;SDS_P2;PMS_P1;PMS_P2;Temp;Humidity;BMP_temperature;BMP_pressure;BME280_temperature;BME280_humidity;BME280_pressure;Samples;Min_cycle;Max_cycle;Signal;HPM_P1;HPM_P2
2021/03/18 00:00:55;;;;;;;101.43;44.65;;;4.50;99.90;;;;;;4993386;28;20229;-70
2021/03/18 00:03:25;;;;;;;135.25;53.90;;;4.50;99.90;;;;;;4986505;28;20214;-69
2021/03/18 00:05:51;;;;;;;131.27;49.72;;;4.50;99.90;;;;;;4980853;28;20210;-70
2021/03/18 00:08:19;;;;;;;106.88;48.05;;;4.50;99.90;;;;;;4982875;28;20206;-70
2021/03/18 00:10:47;;;;;;;111.55;49.22;;;4.50;99.90;;;;;;4977764;28;20241;-71
2021/03/18 00:13:15;;;;;;;116.75;53.28;;;4.50;99.90;;;;;;4983796;28;20285;-70
2021/03/18 00:15:45;;;;;;;113.55;52.00;;;4.50;99.90;;;;;;4985410;28;20221;-71
2021/03/18 00:18:14;;;;;;;115.95;49.08;;;4.50;99.90;;;;;;4984916;28;20206;-71
2021/03/18 00:20:41;;;;;;;93.07;47.05;;;4.50;99.90;;;;;;4989586;28;20304;-72
2021/03/18 00:23:07;;;;;;;178.63;56.33;;;4.60;99.90;;;;;;4986399;28;20269;-70
2021/03/18 00:25:35;;;;;;;121.55;51.13;;;4.60;99.90;;;;;;4994469;28;20204;-70
2021/03/18 00:28:04;;;;;;;117.70;47.95;;;4.60;99.90;;;;;;4990954;28;20202;-70
2021/03/18 00:30:31;;;;;;;159.95;54.80;;;4.50;99.90;;;;;;4979447;28;20688;-70
2021/03/18 00:32:58;;;;;;;105.35;45.10;;;4.50;99.90;;;;;;4992812;28;20609;-71
2021/03/18 00:35:28;;;;;;;136.98;52.28;;;4.50;99.90;;;;;;4988654;28;20293;-69
2021/03/18 00:37:56;;;;;;;106.53;46.60;;;4.40;99.90;;;;;;4980237;28;20197;-69
2021/03/18 00:40:26;;;;;;;117.90;47.55;;;4.40;99.90;;;;;;4988752;28;20576;-68
2021/03/18 00:42:55;;;;;;;99.20;45.00;;;4.50;99.90;;;;;;4978248;28;20233;-69
2021/03/18 00:45:25;;;;;;;123.80;49.22;;;4.50;99.90;;;;;;4987637;28;20198;-70
2021/03/18 00:47:52;;;;;;;142.07;52.83;;;4.40;99.90;;;;;;4976065;28;20207;-69
2021/03/18 00:50:23;;;;;;;112.90;49.50;;;4.40;99.90;;;;;;4981152;28;20226;-69
2021/03/18 00:52:50;;;;;;;109.15;47.42;;;4.40;99.90;;;;;;4991561;28;20214;-70
2021/03/18 00:55:17;;;;;;;123.40;49.20;;;4.40;99.90;;;;;;4984703;28;20230;-70
2021/03/18 00:57:44;;;;;;;137.57;54.67;;;4.40;99.90;;;;;;4980384;28;20214;-69
2021/03/18 01:00:17;;;;;;;132.50;50.30;;;4.40;99.90;;;;;;4984652;28;20271;-69
2021/03/18 01:02:45;;;;;;;106.43;46.35;;;4.30;99.90;;;;;;4979869;28;20222;-70
2021/03/18 01:05:16;;;;;;;137.05;49.75;;;4.30;99.90;;;;;;4984409;28;20688;-70
2021/03/18 01:07:44;;;;;;;91.63;42.75;;;4.30;99.90;;;;;;4992945;28;20200;-71
2021/03/18 01:10:13;;;;;;;125.43;51.83;;;4.30;99.90;;;;;;4991919;28;20232;-68
2021/03/18 01:12:40;;;;;;;99.30;45.22;;;4.30;99.90;;;;;;4984703;28;20202;-69
2021/03/18 01:15:08;;;;;;;110.10;46.42;;;4.20;99.90;;;;;;4986507;28;20672;-71
2021/03/18 01:17:34;;;;;;;134.40;49.60;;;4.20;99.90;;;;;;4981456;28;20205;-70
2021/03/18 01:20:04;;;;;;;99.10;43.60;;;4.20;99.90;;;;;;4990996;28;20278;-70
2021/03/18 01:22:31;;;;;;;106.85;46.30;;;4.20;99.90;;;;;;4991176;28;20678;-69
2021/03/18 01:24:58;;;;;;;133.07;49.92;;;4.20;99.90;;;;;;4990664;28;20205;-70
2021/03/18 01:27:24;;;;;;;105.50;44.45;;;4.20;99.90;;;;;;4981391;28;20198;-69
2021/03/18 01:29:51;;;;;;;177.48;57.20;;;4.20;99.90;;;;;;4983026;28;20227;-69
2021/03/18 01:32:18;;;;;;;157.38;52.60;;;4.20;99.90;;;;;;4985389;28;20213;-71
2021/03/18 01:34:45;;;;;;;117.20;49.83;;;4.10;99.90;;;;;;4989908;28;20222;-71
2021/03/18 01:37:12;;;;;;;126.45;47.50;;;4.10;99.90;;;;;;4985047;28;20218;-69
2021/03/18 01:39:39;;;;;;;93.05;43.50;;;4.10;99.90;;;;;;4996564;28;20232;-71
2021/03/18 01:42:07;;;;;;;165.85;53.35;;;4.10;99.90;;;;;;4981549;28;20264;-68
2021/03/18 01:44:33;;;;;;;92.93;43.00;;;4.00;99.90;;;;;;4990144;28;20244;-70
2021/03/18 01:47:00;;;;;;;138.98;50.03;;;4.00;99.90;;;;;;4987405;28;20198;-69
2021/03/18 01:49:27;;;;;;;122.30;48.10;;;4.10;99.90;;;;;;4991401;28;20213;-71
2021/03/18 01:51:54;;;;;;;101.53;47.63;;;4.00;99.90;;;;;;4993073;28;20210;-72
2021/03/18 01:54:22;;;;;;;86.15;39.40;;;4.00;99.90;;;;;;4993594;28;20228;-72
2021/03/18 01:56:49;;;;;;;103.57;43.92;;;4.00;99.90;;;;;;4991599;28;20206;-72
2021/03/18 01:59:16;;;;;;;107.35;43.55;;;4.10;99.90;;;;;;4993449;28;20217;-70
2021/03/18 02:01:43;;;;;;;112.80;45.38;;;4.10;99.90;;;;;;4986936;28;20546;-70
2021/03/18 02:04:09;;;;;;;147.18;50.50;;;4.00;99.90;;;;;;4994501;28;20204;-70
2021/03/18 02:06:36;;;;;;;155.13;49.63;;;4.00;99.90;;;;;;4983821;28;20256;-72
2021/03/18 02:09:03;;;;;;;172.13;57.08;;;4.00;99.90;;;;;;4993609;28;20206;-73
2021/03/18 02:11:31;;;;;;;254.38;65.20;;;4.00;99.90;;;;;;4983192;28;20227;-71
2021/03/18 02:13:58;;;;;;;326.13;68.03;;;3.90;99.90;;;;;;4985550;28;20672;-71
2021/03/18 02:16:30;;;;;;;306.35;64.63;;;3.80;99.90;;;;;;4992169;28;20344;-71
2021/03/18 02:19:07;;;;;;;151.68;49.45;;;3.70;99.90;;;;;;4986536;28;20298;-70
2021/03/18 02:22:11;;;;;;;135.82;47.70;;;3.80;99.90;;;;;;4984538;28;20236;-70
2021/03/18 02:24:49;;;;;;;194.82;52.28;;;3.70;99.90;;;;;;4993569;28;20196;-70
2021/03/18 02:27:42;;;;;;;101.78;41.15;;;3.60;99.90;;;;;;4981525;28;20212;-69
2021/03/18 02:30:46;;;;;;;118.05;42.05;;;3.60;99.90;;;;;;4991032;28;20285;-70
2021/03/18 02:34:01;;;;;;;171.38;50.90;;;3.60;99.90;;;;;;4992066;28;20213;-69
2021/03/18 02:36:35;;;;;;;198.93;53.80;;;3.60;99.90;;;;;;4982212;28;20205;-69
2021/03/18 02:39:05;;;;;;;156.18;48.08;;;3.50;99.90;;;;;;4992958;28;20285;-69
2021/03/18 02:41:38;;;;;;;142.50;44.63;;;3.50;99.90;;;;;;4979807;28;20226;-70
2021/03/18 02:44:09;;;;;;;240.10;56.13;;;3.40;99.90;;;;;;4985195;28;20202;-69
2021/03/18 02:46:38;;;;;;;218.40;53.95;;;3.40;99.90;;;;;;4988977;28;20541;-69
2021/03/18 02:49:07;;;;;;;116.68;40.60;;;3.40;99.90;;;;;;4986971;28;20213;-70
2021/03/18 02:51:38;;;;;;;106.10;44.00;;;3.30;99.90;;;;;;4995035;28;20241;-69
2021/03/18 02:54:07;;;;;;;169.23;53.60;;;3.40;99.90;;;;;;4994927;28;20235;-70
2021/03/18 02:56:36;;;;;;;128.77;46.42;;;3.40;99.90;;;;;;4992460;28;20263;-69
2021/03/18 02:59:06;;;;;;;112.80;43.92;;;3.40;99.90;;;;;;4994534;28;20198;-70
2021/03/18 03:01:33;;;;;;;123.22;46.28;;;3.40;99.90;;;;;;4982431;28;20240;-72
2021/03/18 03:04:01;;;;;;;126.15;48.17;;;3.40;99.90;;;;;;4994387;28;20240;-70
2021/03/18 03:06:29;;;;;;;104.43;44.42;;;3.50;99.90;;;;;;4985215;28;20198;-69
2021/03/18 03:08:59;;;;;;;129.50;54.85;;;3.50;99.90;;;;;;4981984;28;20215;-70
2021/03/18 03:11:27;;;;;;;128.35;49.05;;;3.60;99.90;;;;;;4983336;28;20269;-71
2021/03/18 03:13:56;;;;;;;108.45;46.17;;;3.50;99.90;;;;;;4983442;28;20220;-70
2021/03/18 03:16:25;;;;;;;172.18;55.35;;;3.60;99.90;;;;;;4983702;28;20222;-69
2021/03/18 03:18:53;;;;;;;123.65;48.08;;;3.60;99.90;;;;;;4980087;28;20283;-70
2021/03/18 03:21:22;;;;;;;118.75;48.88;;;3.60;99.90;;;;;;4985022;28;20232;-70
2021/03/18 03:23:50;;;;;;;179.60;57.55;;;3.50;99.90;;;;;;4986597;28;20205;-71
2021/03/18 03:26:19;;;;;;;212.25;57.53;;;3.40;99.90;;;;;;4984935;28;20208;-70
2021/03/18 03:28:48;;;;;;;164.98;54.33;;;3.30;99.90;;;;;;4980798;28;20580;-70
2021/03/18 03:31:16;;;;;;;131.48;53.72;;;3.20;99.90;;;;;;4983550;28;20280;-70
2021/03/18 03:33:43;;;;;;;149.05;51.63;;;3.20;99.90;;;;;;4982044;28;20230;-71
2021/03/18 03:36:10;;;;;;;133.80;49.83;;;3.30;99.90;;;;;;4982512;28;20218;-70
2021/03/18 03:38:37;;;;;;;135.85;47.35;;;3.30;99.90;;;;;;4981525;28;20205;-70
2021/03/18 03:41:05;;;;;;;185.45;59.08;;;3.30;99.90;;;;;;4983246;28;20224;-70
2021/03/18 03:43:33;;;;;;;123.05;48.53;;;3.30;99.90;;;;;;4988283;28;20257;-69
2021/03/18 03:46:01;;;;;;;138.68;50.05;;;3.30;99.90;;;;;;4991925;28;20198;-69
2021/03/18 03:48:30;;;;;;;135.48;52.35;;;3.30;99.90;;;;;;4985181;28;20292;-70
2021/03/18 03:50:59;;;;;;;117.88;47.05;;;3.30;99.90;;;;;;4993214;28;20228;-70
2021/03/18 03:53:37;;;;;;;132.80;48.08;;;3.30;99.90;;;;;;4989890;28;20209;-69
2021/03/18 03:56:05;;;;;;;113.78;47.58;;;3.20;99.90;;;;;;4984480;28;20236;-70
2021/03/18 03:58:40;;;;;;;232.32;64.55;;;3.10;99.90;;;;;;4983776;28;21160;-69
2021/03/18 04:01:16;;;;;;;157.48;53.30;;;3.00;99.90;;;;;;4985636;28;20771;-72
2021/03/18 04:03:44;;;;;;;195.70;56.67;;;2.90;99.90;;;;;;4993329;28;20201;-70
2021/03/18 04:06:11;;;;;;;128.15;48.58;;;2.80;99.90;;;;;;4991240;28;20209;-69
2021/03/18 04:08:43;;;;;;;110.45;47.67;;;2.70;99.90;;;;;;4980830;28;20206;-70
2021/03/18 04:11:11;;;;;;;139.57;52.00;;;2.80;99.90;;;;;;4990502;28;20259;-70
2021/03/18 04:13:40;;;;;;;106.93;44.70;;;2.80;99.90;;;;;;4980378;28;20202;-70
2021/03/18 04:16:08;;;;;;;88.57;42.70;;;2.80;99.90;;;;;;4985098;28;20228;-70
2021/03/18 04:18:39;;;;;;;186.63;55.55;;;2.80;99.90;;;;;;4992408;28;20313;-70
2021/03/18 04:21:09;;;;;;;187.55;57.42;;;2.70;99.90;;;;;;4985777;28;20758;-69
2021/03/18 04:23:37;;;;;;;83.82;40.05;;;2.60;99.90;;;;;;4994269;28;20209;-70
2021/03/18 04:26:05;;;;;;;162.73;52.92;;;2.60;99.90;;;;;;4991891;28;20194;-71
2021/03/18 04:28:34;;;;;;;99.22;47.13;;;2.60;99.90;;;;;;4984316;28;20204;-69
2021/03/18 04:31:05;;;;;;;95.30;45.03;;;2.60;99.90;;;;;;4986739;28;20300;-70
2021/03/18 04:33:33;;;;;;;119.57;48.30;;;2.60;99.90;;;;;;4982800;28;20202;-70
2021/03/18 04:36:00;;;;;;;91.90;41.78;;;2.60;99.90;;;;;;4990507;28;20225;-69
2021/03/18 04:38:29;;;;;;;99.55;41.28;;;2.50;99.90;;;;;;4979916;28;20210;-69
2021/03/18 04:40:56;;;;;;;105.90;44.05;;;2.50;99.90;;;;;;4984001;28;20578;-71
2021/03/18 04:43:24;;;;;;;91.68;40.85;;;2.40;99.90;;;;;;4985558;28;20616;-71
2021/03/18 04:45:51;;;;;;;130.18;46.60;;;2.40;99.90;;;;;;4985113;28;20202;-70
2021/03/18 04:48:20;;;;;;;80.70;32.33;;;2.40;99.90;;;;;;4985420;28;20683;-69
2021/03/18 04:50:47;;;;;;;74.88;33.92;;;2.40;99.90;;;;;;4982032;28;20297;-69
2021/03/18 04:53:15;;;;;;;124.60;47.03;;;2.40;99.90;;;;;;4992706;28;20552;-69
2021/03/18 04:55:42;;;;;;;112.80;38.55;;;2.40;99.90;;;;;;4986713;28;20223;-70
2021/03/18 04:58:10;;;;;;;116.60;44.88;;;2.40;99.90;;;;;;4988336;28;20210;-70
2021/03/18 05:00:40;;;;;;;125.00;40.55;;;2.40;99.90;;;;;;4989566;28;20225;-70
2021/03/18 05:03:08;;;;;;;91.82;40.28;;;2.40;99.90;;;;;;4985465;28;20296;-71
2021/03/18 05:05:37;;;;;;;111.53;43.03;;;2.30;99.90;;;;;;4989604;28;20201;-71
2021/03/18 05:08:04;;;;;;;112.68;40.70;;;2.40;99.90;;;;;;4991569;28;20541;-70
2021/03/18 05:10:34;;;;;;;106.70;40.70;;;2.50;99.90;;;;;;4979535;28;20226;-70
2021/03/18 05:13:05;;;;;;;146.30;44.70;;;2.40;99.90;;;;;;4990162;28;20650;-70
2021/03/18 05:15:32;;;;;;;118.90;44.10;;;2.30;99.90;;;;;;4987928;28;20336;-70
2021/03/18 05:18:00;;;;;;;206.88;53.65;;;2.30;99.90;;;;;;4980809;28;20203;-70
2021/03/18 05:20:27;;;;;;;155.50;49.65;;;2.20;99.90;;;;;;4982727;28;20677;-70
2021/03/18 05:22:54;;;;;;;143.95;48.17;;;2.20;99.90;;;;;;4988858;28;20331;-70
2021/03/18 05:25:24;;;;;;;179.25;50.95;;;2.10;99.90;;;;;;4989623;28;20202;-70
2021/03/18 05:27:51;;;;;;;153.65;46.20;;;2.20;99.90;;;;;;4980360;28;20277;-71
2021/03/18 05:30:19;;;;;;;174.70;50.33;;;2.10;99.90;;;;;;4983955;28;20230;-69
2021/03/18 05:32:46;;;;;;;116.43;43.15;;;2.20;99.90;;;;;;4983101;28;20603;-69
2021/03/18 05:35:14;;;;;;;135.40;47.15;;;2.30;99.90;;;;;;4977423;28;20222;-69
2021/03/18 05:37:41;;;;;;;147.70;48.08;;;2.40;99.90;;;;;;4976711;28;20203;-69
2021/03/18 05:40:12;;;;;;;199.80;53.42;;;2.40;99.90;;;;;;4977910;28;20574;-71
2021/03/18 05:42:39;;;;;;;117.55;46.38;;;2.50;99.90;;;;;;4985954;28;20208;-72
2021/03/18 05:45:09;;;;;;;120.70;45.60;;;2.50;99.90;;;;;;4980474;28;20662;-75
2021/03/18 05:47:36;;;;;;;111.93;44.08;;;2.60;99.90;;;;;;4985046;28;20605;-75
2021/03/18 05:50:05;;;;;;;126.50;44.35;;;2.80;99.90;;;;;;4985778;28;20232;-74
2021/03/18 05:52:34;;;;;;;129.82;44.78;;;2.80;99.90;;;;;;4990525;28;20202;-72
2021/03/18 05:55:02;;;;;;;147.98;48.58;;;2.70;99.90;;;;;;4992660;28;20260;-71
2021/03/18 05:57:30;;;;;;;125.03;45.40;;;2.60;99.90;;;;;;4974955;28;20199;-72
2021/03/18 05:59:57;;;;;;;89.75;39.83;;;2.70;99.90;;;;;;4981474;28;20230;-72
2021/03/18 06:02:25;;;;;;;102.25;42.95;;;2.80;99.90;;;;;;4975421;28;20637;-72
2021/03/18 06:04:51;;;;;;;110.57;41.33;;;2.80;99.90;;;;;;4987782;28;20203;-72
2021/03/18 06:07:18;;;;;;;125.25;46.83;;;3.00;99.90;;;;;;4985168;28;20653;-75
2021/03/18 06:09:45;;;;;;;88.15;35.35;;;3.00;99.90;;;;;;4979056;28;20210;-71
2021/03/18 06:12:12;;;;;;;111.43;40.83;;;3.10;99.90;;;;;;4989066;28;20208;-72
2021/03/18 06:14:40;;;;;;;119.60;43.85;;;3.20;99.90;;;;;;4981569;28;20228;-71
2021/03/18 06:17:08;;;;;;;89.68;39.15;;;3.20;99.90;;;;;;4991460;28;20217;-71
2021/03/18 06:19:35;;;;;;;69.32;33.90;;;3.30;99.90;;;;;;4985996;28;20211;-72
2021/03/18 06:22:01;;;;;;;65.55;32.83;;;3.30;99.90;;;;;;4991466;28;20242;-72
2021/03/18 06:24:29;;;;;;;87.53;38.45;;;3.60;99.90;;;;;;4991007;28;20277;-71
2021/03/18 06:26:58;;;;;;;78.65;36.25;;;3.60;99.90;;;;;;4988284;28;20208;-69
2021/03/18 06:29:33;;;;;;;79.10;37.28;;;3.60;99.90;;;;;;4986073;28;20203;-70
2021/03/18 06:32:18;;;;;;;80.80;35.67;;;3.70;99.90;;;;;;4992427;28;20205;-71
2021/03/18 06:34:47;;;;;;;75.57;35.97;;;3.80;99.90;;;;;;4983752;28;20699;-71
2021/03/18 06:37:35;;;;;;;103.43;40.30;;;3.70;99.90;;;;;;4983961;28;20210;-70
2021/03/18 06:40:10;;;;;;;77.75;36.10;;;3.80;99.90;;;;;;4978351;28;20249;-70
2021/03/18 06:42:37;;;;;;;114.15;42.95;;;3.80;99.90;;;;;;4993475;28;20201;-71
2021/03/18 06:45:10;;;;;;;89.63;37.85;;;3.80;99.90;;;;;;4982882;28;20204;-70
2021/03/18 06:47:44;;;;;;;75.07;35.60;;;4.40;99.90;;;;;;4990493;28;20685;-71
2021/03/18 06:50:12;;;;;;;59.42;29.67;;;4.80;99.90;;;;;;4984135;28;20245;-70
2021/03/18 06:52:40;;;;;;;56.67;30.45;;;5.00;99.90;;;;;;4990083;28;20563;-71
2021/03/18 06:55:09;;;;;;;59.70;28.42;;;5.10;99.90;;;;;;4992852;28;20572;-70
2021/03/18 06:57:36;;;;;;;74.72;37.40;;;5.10;99.90;;;;;;4982982;28;20203;-71
2021/03/18 07:00:07;;;;;;;81.25;37.10;;;5.30;99.90;;;;;;4990283;28;20680;-73
2021/03/18 07:02:40;;;;;;;62.47;31.50;;;5.20;99.90;;;;;;4982328;28;20249;-74
2021/03/18 07:05:18;;;;;;;56.63;31.75;;;5.50;99.90;;;;;;4980214;28;20202;-71
2021/03/18 07:07:47;;;;;;;56.35;29.80;;;5.80;99.90;;;;;;4977277;28;20606;-71
2021/03/18 07:10:15;;;;;;;46.40;28.35;;;5.90;99.90;;;;;;4987367;28;20225;-70
2021/03/18 07:12:42;;;;;;;55.25;30.48;;;5.80;99.90;;;;;;4988632;28;20205;-74
2021/03/18 07:15:19;;;;;;;48.88;26.98;;;5.70;99.90;;;;;;4990611;28;20225;-74
2021/03/18 07:17:46;;;;;;;53.35;28.83;;;5.80;99.90;;;;;;4985343;28;20210;-74
2021/03/18 07:20:16;;;;;;;53.40;29.88;;;6.20;99.90;;;;;;4988515;28;20260;-70
2021/03/18 07:22:46;;;;;;;49.67;27.60;;;6.20;99.90;;;;;;4994167;28;20284;-72
2021/03/18 07:25:16;;;;;;;47.72;26.65;;;6.20;99.90;;;;;;4992788;28;20201;-71
2021/03/18 07:27:45;;;;;;;36.58;23.83;;;6.20;99.90;;;;;;4988538;28;20289;-72
2021/03/18 07:30:25;;;;;;;31.38;20.05;;;6.10;99.90;;;;;;4985864;28;20312;-73
2021/03/18 07:32:53;;;;;;;41.33;23.35;;;6.30;99.90;;;;;;4988213;28;20228;-72
2021/03/18 07:35:21;;;;;;;43.30;26.08;;;6.20;99.90;;;;;;4983301;28;20218;-70
2021/03/18 07:37:48;;;;;;;40.40;26.38;;;5.90;99.90;;;;;;4991558;28;20204;-71
2021/03/18 07:40:15;;;;;;;47.45;24.85;;;5.80;99.90;;;;;;4988359;28;20290;-72
2021/03/18 07:42:42;;;;;;;35.72;24.23;;;5.60;99.90;;;;;;4991371;28;20252;-71
2021/03/18 07:45:11;;;;;;;40.33;24.50;;;5.60;99.90;;;;;;4988044;28;20209;-71
2021/03/18 07:47:39;;;;;;;34.85;21.85;;;5.50;99.90;;;;;;4986790;28;20212;-70
2021/03/18 07:50:10;;;;;;;39.08;21.83;;;5.50;99.90;;;;;;4990673;28;20229;-70
2021/03/18 07:52:40;;;;;;;39.40;22.33;;;5.40;99.90;;;;;;4989322;28;20216;-71
2021/03/18 07:55:10;;;;;;;38.33;21.63;;;5.50;99.90;;;;;;4990902;28;20279;-71
2021/03/18 07:57:41;;;;;;;39.30;22.00;;;5.50;99.90;;;;;;4980698;28;20221;-71
2021/03/18 08:00:13;;;;;;;34.55;20.63;;;5.40;99.90;;;;;;4983042;28;20221;-71
2021/03/18 08:02:40;;;;;;;33.67;20.00;;;5.50;99.90;;;;;;4987221;28;20297;-71
2021/03/18 08:05:08;;;;;;;39.70;22.65;;;5.50;99.90;;;;;;4987185;28;20285;-71
2021/03/18 08:07:42;;;;;;;37.03;20.65;;;5.50;99.90;;;;;;4992761;28;20212;-71
2021/03/18 08:10:11;;;;;;;38.25;22.15;;;5.50;99.90;;;;;;4983780;28;20307;-71
2021/03/18 08:12:51;;;;;;;36.63;21.10;;;5.40;99.90;;;;;;4988081;28;20292;-71
2021/03/18 08:15:46;;;;;;;40.67;24.38;;;5.40;99.90;;;;;;4983331;28;20232;-71
2021/03/18 08:18:37;;;;;;;44.20;24.35;;;5.60;99.90;;;;;;4975317;28;20210;-73
2021/03/18 08:21:11;;;;;;;39.05;22.23;;;5.70;99.90;;;;;;4983312;28;20233;-71
2021/03/18 08:23:42;;;;;;;39.55;22.08;;;5.80;99.90;;;;;;4993427;28;20322;-71
2021/03/18 08:26:11;;;;;;;36.38;19.50;;;5.80;99.90;;;;;;4991354;28;20239;-75
2021/03/18 08:28:41;;;;;;;31.65;21.67;;;5.70;99.90;;;;;;4982602;28;20207;-72
2021/03/18 08:31:10;;;;;;;40.40;23.15;;;5.80;99.90;;;;;;4987394;28;20605;-71
2021/03/18 08:33:39;;;;;;;36.38;20.75;;;6.00;99.90;;;;;;4980615;28;20206;-72
2021/03/18 08:36:22;;;;;;;40.08;20.98;;;6.00;99.90;;;;;;4981847;28;20221;-71
2021/03/18 08:38:52;;;;;;;41.83;21.65;;;6.00;99.90;;;;;;4981648;28;20232;-71
2021/03/18 08:41:36;;;;;;;37.50;20.13;;;6.00;99.90;;;;;;4989844;28;20223;-72
2021/03/18 08:44:29;;;;;;;34.08;19.20;;;6.10;99.90;;;;;;4980548;28;20261;-71
2021/03/18 08:46:57;;;;;;;37.47;20.08;;;6.20;99.90;;;;;;4981237;28;20682;-72
2021/03/18 08:49:30;;;;;;;29.20;19.83;;;6.30;99.90;;;;;;4989894;28;20292;-71
2021/03/18 08:51:59;;;;;;;43.22;23.00;;;6.40;99.90;;;;;;4992273;28;20267;-72
2021/03/18 08:54:54;;;;;;;30.13;18.98;;;6.50;99.90;;;;;;4992055;28;20209;-71
2021/03/18 08:57:27;;;;;;;34.00;21.23;;;6.50;99.90;;;;;;4981419;28;20584;-72
2021/03/18 08:59:56;;;;;;;32.70;20.33;;;6.30;99.90;;;;;;4986669;28;20312;-71
2021/03/18 09:02:29;;;;;;;39.10;22.58;;;6.30;99.90;;;;;;4978291;28;20306;-72
2021/03/18 09:04:57;;;;;;;24.17;18.60;;;6.40;99.90;;;;;;4986546;28;20207;-72
2021/03/18 09:07:25;;;;;;;29.30;18.90;;;6.50;99.90;;;;;;4986693;28;20207;-73
2021/03/18 09:10:10;;;;;;;27.58;16.27;;;6.80;99.90;;;;;;4980609;28;20254;-70
2021/03/18 09:12:46;;;;;;;22.17;14.70;;;7.00;99.90;;;;;;4980136;28;20204;-71
2021/03/18 09:15:16;;;;;;;25.90;14.93;;;7.20;99.90;;;;;;4983529;28;20588;-70
2021/03/18 09:17:44;;;;;;;27.45;17.65;;;7.30;99.90;;;;;;4992048;28;20232;-72
2021/03/18 09:20:12;;;;;;;27.85;17.88;;;7.50;99.90;;;;;;4984824;28;20223;-71
2021/03/18 09:22:39;;;;;;;24.95;17.80;;;7.60;99.90;;;;;;4992255;28;20707;-70
2021/03/18 09:25:08;;;;;;;24.88;16.75;;;7.70;99.90;;;;;;4990374;28;20198;-70
2021/03/18 09:27:37;;;;;;;29.25;18.60;;;7.80;99.90;;;;;;4982513;28;20242;-70
2021/03/18 09:30:35;;;;;;;23.15;16.85;;;8.00;99.90;;;;;;4984722;28;20220;-72
2021/03/18 09:33:15;;;;;;;31.02;19.42;;;8.10;99.90;;;;;;4989768;28;20209;-70
2021/03/18 09:35:41;;;;;;;28.55;18.95;;;8.40;99.90;;;;;;4988317;28;20754;-71
2021/03/18 09:38:16;;;;;;;28.67;18.85;;;8.50;99.90;;;;;;4991634;28;20206;-72
2021/03/18 09:40:44;;;;;;;24.73;18.90;;;8.60;99.90;;;;;;4983873;28;20224;-70
2021/03/18 09:43:14;;;;;;;27.38;18.88;;;8.70;99.90;;;;;;4980631;28;20209;-72
2021/03/18 09:45:49;;;;;;;35.17;21.60;;;8.80;99.90;;;;;;4980825;28;20209;-72
2021/03/18 09:48:23;;;;;;;27.80;19.13;;;8.70;99.90;;;;;;4986185;28;20204;-71
2021/03/18 09:50:50;;;;;;;25.77;18.83;;;8.60;99.90;;;;;;4986643;28;20319;-70
2021/03/18 09:53:17;;;;;;;24.55;18.50;;;8.40;99.90;;;;;;4993540;28;20238;-71
2021/03/18 09:55:45;;;;;;;27.67;16.33;;;8.30;99.90;;;;;;4992817;28;20220;-71
2021/03/18 09:58:13;;;;;;;22.98;16.75;;;8.50;99.90;;;;;;4995099;28;20208;-71
2021/03/18 10:00:41;;;;;;;26.25;17.20;;;8.70;99.90;;;;;;4983664;28;20310;-71
2021/03/18 10:03:08;;;;;;;26.23;16.55;;;9.50;99.90;;;;;;4980352;28;20583;-70
2021/03/18 10:05:35;;;;;;;18.20;14.48;;;10.30;99.90;;;;;;4995601;28;20213;-72
2021/03/18 10:08:02;;;;;;;21.13;13.40;;;11.40;99.90;;;;;;4987876;28;20214;-71
2021/03/18 10:10:30;;;;;;;17.85;14.27;;;12.10;96.70;;;;;;4986135;28;20226;-71
2021/03/18 10:12:58;;;;;;;22.58;16.45;;;12.10;94.60;;;;;;4982828;28;20297;-72
2021/03/18 10:15:25;;;;;;;19.58;15.13;;;12.10;94.50;;;;;;4993034;28;20225;-70
2021/03/18 10:17:54;;;;;;;21.38;14.77;;;11.80;93.80;;;;;;4982041;28;20202;-72
2021/03/18 10:20:25;;;;;;;20.33;12.43;;;11.40;94.80;;;;;;4980558;28;20230;-71
2021/03/18 10:22:59;;;;;;;17.65;12.40;;;11.40;95.10;;;;;;4995136;28;20198;-72
2021/03/18 10:25:27;;;;;;;17.30;12.60;;;11.20;94.60;;;;;;4989850;28;20201;-72
2021/03/18 10:28:02;;;;;;;18.00;12.73;;;10.70;94.50;;;;;;4985129;28;20220;-70
2021/03/18 10:30:29;;;;;;;22.75;13.20;;;10.50;95.50;;;;;;4994022;28;20217;-70
2021/03/18 10:33:08;;;;;;;20.67;12.43;;;10.50;95.20;;;;;;4988213;28;20216;-72
2021/03/18 10:35:37;;;;;;;14.68;10.65;;;10.50;96.00;;;;;;4982106;28;20249;-71
2021/03/18 10:38:06;;;;;;;13.75;11.30;;;10.70;95.20;;;;;;4992957;28;20562;-70
2021/03/18 10:40:39;;;;;;;12.18;9.45;;;11.30;95.00;;;;;;4979932;28;20227;-71
2021/03/18 10:43:20;;;;;;;16.20;12.82;;;11.60;93.70;;;;;;4992903;28;20582;-70
2021/03/18 10:45:47;;;;;;;15.50;12.45;;;11.70;93.50;;;;;;4983026;28;20578;-71
2021/03/18 10:48:19;;;;;;;15.82;12.75;;;11.60;93.40;;;;;;4982449;28;20378;-72
2021/03/18 10:50:46;;;;;;;20.67;12.60;;;11.90;93.80;;;;;;4985682;28;20237;-71
2021/03/18 10:53:14;;;;;;;15.07;10.80;;;12.20;93.80;;;;;;4994418;28;20808;-71
2021/03/18 10:55:44;;;;;;;11.88;9.95;;;12.30;92.10;;;;;;4986393;28;20235;-71
2021/03/18 10:58:17;;;;;;;15.68;9.73;;;12.20;92.60;;;;;;4993898;28;20214;-72
2021/03/18 11:00:44;;;;;;;11.60;9.30;;;12.00;91.90;;;;;;4993431;28;20264;-71
2021/03/18 11:03:13;;;;;;;13.57;8.95;;;11.80;91.60;;;;;;4993260;28;20209;-72
2021/03/18 11:05:43;;;;;;;15.05;10.05;;;11.90;91.90;;;;;;4994700;28;20206;-71
2021/03/18 11:08:11;;;;;;;10.02;7.32;;;11.70;92.40;;;;;;4983200;28;20238;-71
2021/03/18 11:10:44;;;;;;;17.60;8.52;;;11.00;92.20;;;;;;4988628;28;20325;-73
2021/03/18 11:13:14;;;;;;;13.15;8.55;;;11.00;93.90;;;;;;4990783;28;20209;-71
2021/03/18 11:15:46;;;;;;;12.75;9.13;;;11.00;94.00;;;;;;4984726;28;20221;-73
2021/03/18 11:18:14;;;;;;;11.05;9.15;;;10.80;93.90;;;;;;4984605;28;20857;-72
2021/03/18 11:20:42;;;;;;;15.57;8.52;;;10.70;94.00;;;;;;4984049;28;20321;-71
2021/03/18 11:23:10;;;;;;;12.30;8.15;;;10.60;94.50;;;;;;4993296;28;20213;-71
2021/03/18 11:25:36;;;;;;;9.13;7.50;;;10.60;94.00;;;;;;4990309;28;20201;-71
2021/03/18 11:28:03;;;;;;;12.02;8.05;;;10.70;94.20;;;;;;4984887;28;20241;-71
2021/03/18 11:30:34;;;;;;;11.77;8.45;;;10.90;94.30;;;;;;4988654;28;20309;-71
2021/03/18 11:33:13;;;;;;;13.27;9.57;;;10.60;94.10;;;;;;4992021;28;20571;-72
2021/03/18 11:35:41;;;;;;;9.85;8.70;;;10.50;94.90;;;;;;4991252;28;20312;-72
2021/03/18 11:38:07;;;;;;;11.77;8.30;;;10.40;95.20;;;;;;4978225;28;20625;-72
2021/03/18 11:40:35;;;;;;;13.00;8.73;;;10.20;95.90;;;;;;4988281;28;20286;-72
2021/03/18 11:43:03;;;;;;;10.90;8.15;;;10.10;97.00;;;;;;4991263;28;20268;-71
2021/03/18 11:45:32;;;;;;;12.07;7.30;;;9.90;96.80;;;;;;4986450;28;20230;-71
2021/03/18 11:47:59;;;;;;;8.63;6.55;;;9.70;97.80;;;;;;4991296;28;20214;-70
2021/03/18 11:50:26;;;;;;;10.88;7.32;;;9.30;97.00;;;;;;4983021;28;20304;-70
2021/03/18 11:52:55;;;;;;;9.48;6.30;;;9.10;98.70;;;;;;4992767;28;20211;-71
2021/03/18 11:55:22;;;;;;;10.00;7.13;;;9.00;99.30;;;;;;4983017;28;20252;-72
2021/03/18 11:57:54;;;;;;;8.63;6.03;;;8.90;99.00;;;;;;4985961;28;20212;-71
2021/03/18 12:00:22;;;;;;;9.05;5.15;;;8.60;99.40;;;;;;4993883;28;20679;-71
2021/03/18 12:02:49;;;;;;;11.45;4.15;;;8.40;99.50;;;;;;4989219;28;20220;-71
2021/03/18 12:05:16;;;;;;;6.85;4.10;;;8.40;98.80;;;;;;4989093;28;20202;-71
2021/03/18 12:07:43;;;;;;;4.65;3.88;;;8.40;97.50;;;;;;4993190;28;20216;-71
2021/03/18 12:10:11;;;;;;;4.15;3.20;;;8.50;97.10;;;;;;4986949;28;20297;-72
2021/03/18 12:12:38;;;;;;;5.97;3.17;;;8.60;96.90;;;;;;4984024;28;20631;-71
2021/03/18 12:15:06;;;;;;;5.88;2.55;;;8.70;95.80;;;;;;4983726;28;20240;-70
2021/03/18 12:17:33;;;;;;;5.10;2.60;;;8.80;95.20;;;;;;4991185;28;20288;-71
2021/03/18 12:20:01;;;;;;;4.20;2.78;;;8.80;95.30;;;;;;4986726;28;20236;-72
2021/03/18 12:22:28;;;;;;;4.97;2.97;;;8.80;95.30;;;;;;4992608;28;20233;-71
2021/03/18 12:24:54;;;;;;;4.50;3.03;;;8.90;95.60;;;;;;4985632;28;20732;-70
2021/03/18 12:27:21;;;;;;;4.63;3.00;;;8.90;94.90;;;;;;4989115;28;20209;-72
2021/03/18 12:29:48;;;;;;;8.90;3.22;;;9.00;94.80;;;;;;4989618;28;20250;-71
2021/03/18 12:32:15;;;;;;;3.80;2.80;;;8.70;94.60;;;;;;4984544;28;20549;-72
2021/03/18 12:34:41;;;;;;;4.22;2.67;;;8.70;95.40;;;;;;4990322;28;20211;-71
2021/03/18 12:37:09;;;;;;;5.97;3.08;;;8.70;96.10;;;;;;4987695;28;20574;-72
2021/03/18 12:39:36;;;;;;;6.82;3.55;;;8.90;96.00;;;;;;4982249;28;20206;-72
2021/03/18 12:42:03;;;;;;;5.15;3.65;;;8.90;95.50;;;;;;4990742;28;20288;-70
2021/03/18 12:44:29;;;;;;;6.00;3.28;;;8.90;95.90;;;;;;4984118;28;20205;-70
2021/03/18 12:46:56;;;;;;;7.07;4.20;;;9.00;95.60;;;;;;4989532;28;20198;-72